sensor_id;sensor_type;location;lat;lon;timestamp;pressure;altitude;pressure_sealevel;temperature;humidity
71974;BME280;59840;52.122;5.404;2023-05-28T00:00:39;102312.22;;;13.12;92.93
71974;BME280;59840;52.122;5.404;2023-05-28T00:03:24;102303.09;;;13.08;93.24
71974;BME280;59840;52.122;5.404;2023-05-28T00:06:00;102305.50;;;13.09;93.21
71974;BME280;59840;52.122;5.404;2023-05-28T00:08:44;102304.34;;;13.05;93.33
71974;BME280;59840;52.122;5.404;2023-05-28T00:11:50;102299.84;;;13.06;93.53
71974;BME280;59840;52.122;5.404;2023-05-28T00:14:55;102298.22;;;13.05;93.08
71974;BME280;59840;52.122;5.404;2023-05-28T00:18:09;102297.44;;;13.04;93.33
71974;BME280;59840;52.122;5.404;2023-05-28T00:20:45;102296.25;;;13.00;93.11
71974;BME280;59840;52.122;5.404;2023-05-28T00:23:23;102307.53;;;12.96;93.82
71974;BME280;59840;52.122;5.404;2023-05-28T00:33:36;102305.34;;;12.74;94.60
71974;BME280;59840;52.122;5.404;2023-05-28T00:36:26;102300.50;;;12.71;95.89
71974;BME280;59840;52.122;5.404;2023-05-28T00:39:04;102293.59;;;12.70;95.89
71974;BME280;59840;52.122;5.404;2023-05-28T00:42:31;102281.53;;;12.74;94.95
71974;BME280;59840;52.122;5.404;2023-05-28T00:49:12;102269.09;;;12.75;94.96
71974;BME280;59840;52.122;5.404;2023-05-28T00:51:54;102268.19;;;12.81;95.18
71974;BME280;59840;52.122;5.404;2023-05-28T00:54:23;102265.66;;;12.86;95.35
71974;BME280;59840;52.122;5.404;2023-05-28T00:57:15;102265.78;;;12.80;94.95
71974;BME280;59840;52.122;5.404;2023-05-28T01:00:14;102255.75;;;12.82;95.13
71974;BME280;59840;52.122;5.404;2023-05-28T01:02:49;102260.91;;;12.77;95.07
71974;BME280;59840;52.122;5.404;2023-05-28T01:05:24;102265.25;;;12.71;94.91
71974;BME280;59840;52.122;5.404;2023-05-28T01:12:44;102252.84;;;12.71;94.46
71974;BME280;59840;52.122;5.404;2023-05-28T01:15:19;102260.84;;;12.65;94.04
71974;BME280;59840;52.122;5.404;2023-05-28T01:17:45;102254.47;;;12.54;94.01
71974;BME280;59840;52.122;5.404;2023-05-28T01:20:15;102261.44;;;12.49;94.29
71974;BME280;59840;52.122;5.404;2023-05-28T01:22:50;102261.22;;;12.50;94.92
71974;BME280;59840;52.122;5.404;2023-05-28T01:25:22;102263.16;;;12.43;95.24
71974;BME280;59840;52.122;5.404;2023-05-28T01:27:49;102259.56;;;12.37;95.46
71974;BME280;59840;52.122;5.404;2023-05-28T01:30:16;102259.47;;;12.26;95.46
71974;BME280;59840;52.122;5.404;2023-05-28T01:32:44;102258.38;;;12.15;96.15
71974;BME280;59840;52.122;5.404;2023-05-28T01:35:25;102250.75;;;12.07;96.58
71974;BME280;59840;52.122;5.404;2023-05-28T01:38:03;102258.75;;;12.00;96.84
71974;BME280;59840;52.122;5.404;2023-05-28T01:40:34;102256.53;;;11.97;97.01
71974;BME280;59840;52.122;5.404;2023-05-28T01:43:31;102258.56;;;11.77;97.25
71974;BME280;59840;52.122;5.404;2023-05-28T01:46:13;102258.56;;;11.77;97.87
71974;BME280;59840;52.122;5.404;2023-05-28T01:49:17;102256.47;;;11.79;98.06
71974;BME280;59840;52.122;5.404;2023-05-28T01:52:42;102264.91;;;11.69;98.41
71974;BME280;59840;52.122;5.404;2023-05-28T01:55:12;102258.19;;;11.67;98.69
71974;BME280;59840;52.122;5.404;2023-05-28T01:57:46;102267.69;;;11.74;99.11
71974;BME280;59840;52.122;5.404;2023-05-28T02:01:03;102259.06;;;11.86;98.42
71974;BME280;59840;52.122;5.404;2023-05-28T02:04:23;102262.69;;;11.91;97.78
71974;BME280;59840;52.122;5.404;2023-05-28T02:06:55;102254.97;;;11.90;97.73
71974;BME280;59840;52.122;5.404;2023-05-28T02:09:25;102259.22;;;11.91;97.56
71974;BME280;59840;52.122;5.404;2023-05-28T02:15:51;102256.47;;;11.79;97.44
71974;BME280;59840;52.122;5.404;2023-05-28T02:18:26;102259.38;;;11.71;98.06
71974;BME280;59840;52.122;5.404;2023-05-28T02:24:24;102257.34;;;11.73;98.54
71974;BME280;59840;52.122;5.404;2023-05-28T02:27:46;102258.75;;;11.75;97.95
71974;BME280;59840;52.122;5.404;2023-05-28T02:31:02;102250.53;;;11.84;98.64
71974;BME280;59840;52.122;5.404;2023-05-28T02:33:42;102248.38;;;11.74;98.32
71974;BME280;59840;52.122;5.404;2023-05-28T02:40:33;102249.81;;;11.77;98.47
71974;BME280;59840;52.122;5.404;2023-05-28T02:43:00;102257.53;;;11.78;98.53
71974;BME280;59840;52.122;5.404;2023-05-28T02:56:25;102264.03;;;11.75;98.40
71974;BME280;59840;52.122;5.404;2023-05-28T02:58:53;102262.00;;;11.78;98.20
71974;BME280;59840;52.122;5.404;2023-05-28T03:01:20;102272.63;;;11.71;98.26
71974;BME280;59840;52.122;5.404;2023-05-28T03:03:47;102269.97;;;11.71;98.41
71974;BME280;59840;52.122;5.404;2023-05-28T03:06:14;102266.50;;;11.70;98.41
71974;BME280;59840;52.122;5.404;2023-05-28T03:08:41;102262.47;;;11.68;98.23
71974;BME280;59840;52.122;5.404;2023-05-28T03:11:08;102263.88;;;11.70;98.10
71974;BME280;59840;52.122;5.404;2023-05-28T03:13:34;102259.59;;;11.69;98.27
71974;BME280;59840;52.122;5.404;2023-05-28T03:16:01;102266.31;;;11.72;97.90
71974;BME280;59840;52.122;5.404;2023-05-28T03:18:28;102262.03;;;11.71;97.92
71974;BME280;59840;52.122;5.404;2023-05-28T03:20:54;102260.84;;;11.67;97.98
71974;BME280;59840;52.122;5.404;2023-05-28T03:23:21;102268.41;;;11.63;98.05
71974;BME280;59840;52.122;5.404;2023-05-28T03:25:47;102261.31;;;11.57;98.34
71974;BME280;59840;52.122;5.404;2023-05-28T03:28:14;102267.00;;;11.61;98.42
71974;BME280;59840;52.122;5.404;2023-05-28T03:30:41;102266.63;;;11.57;98.48
71974;BME280;59840;52.122;5.404;2023-05-28T03:33:08;102276.00;;;11.53;98.46
71974;BME280;59840;52.122;5.404;2023-05-28T03:35:34;102272.97;;;11.50;98.86
71974;BME280;59840;52.122;5.404;2023-05-28T03:38:01;102279.28;;;11.49;98.99
71974;BME280;59840;52.122;5.404;2023-05-28T03:40:28;102270.63;;;11.41;99.70
71974;BME280;59840;52.122;5.404;2023-05-28T03:42:54;102264.94;;;11.38;99.94
71974;BME280;59840;52.122;5.404;2023-05-28T03:45:20;102263.13;;;11.38;100.00
71974;BME280;59840;52.122;5.404;2023-05-28T03:47:47;102267.00;;;11.36;100.00
71974;BME280;59840;52.122;5.404;2023-05-28T03:50:14;102267.19;;;11.34;100.00
71974;BME280;59840;52.122;5.404;2023-05-28T03:52:40;102280.41;;;11.34;100.00
71974;BME280;59840;52.122;5.404;2023-05-28T03:55:07;102278.16;;;11.38;100.00
71974;BME280;59840;52.122;5.404;2023-05-28T03:57:34;102283.88;;;11.35;100.00
71974;BME280;59840;52.122;5.404;2023-05-28T04:00:01;102278.38;;;11.36;100.00
71974;BME280;59840;52.122;5.404;2023-05-28T04:02:29;102278.38;;;11.36;100.00
71974;BME280;59840;52.122;5.404;2023-05-28T04:04:55;102280.81;;;11.38;100.00
71974;BME280;59840;52.122;5.404;2023-05-28T04:07:22;102273.31;;;11.35;100.00
71974;BME280;59840;52.122;5.404;2023-05-28T04:09:49;102277.56;;;11.36;100.00
71974;BME280;59840;52.122;5.404;2023-05-28T04:12:16;102276.91;;;11.40;100.00
71974;BME280;59840;52.122;5.404;2023-05-28T04:14:43;102273.41;;;11.47;100.00
71974;BME280;59840;52.122;5.404;2023-05-28T04:17:09;102260.13;;;11.53;100.00
71974;BME280;59840;52.122;5.404;2023-05-28T04:19:40;102266.63;;;11.57;100.00
71974;BME280;59840;52.122;5.404;2023-05-28T04:22:07;102279.19;;;11.62;100.00
71974;BME280;59840;52.122;5.404;2023-05-28T04:24:34;102283.50;;;11.56;100.00
71974;BME280;59840;52.122;5.404;2023-05-28T04:27:01;102282.09;;;11.54;100.00
71974;BME280;59840;52.122;5.404;2023-05-28T04:29:27;102283.31;;;11.51;100.00
71974;BME280;59840;52.122;5.404;2023-05-28T04:31:57;102289.44;;;11.52;100.00
71974;BME280;59840;52.122;5.404;2023-05-28T04:34:24;102285.34;;;11.56;100.00
71974;BME280;59840;52.122;5.404;2023-05-28T04:36:51;102286.13;;;11.56;100.00
71974;BME280;59840;52.122;5.404;2023-05-28T04:39:19;102284.25;;;11.63;100.00
71974;BME280;59840;52.122;5.404;2023-05-28T04:41:49;102286.09;;;11.63;100.00
71974;BME280;59840;52.122;5.404;2023-05-28T04:44:15;102289.34;;;11.65;100.00
71974;BME280;59840;52.122;5.404;2023-05-28T04:46:42;102287.72;;;11.64;100.00
71974;BME280;59840;52.122;5.404;2023-05-28T04:49:10;102287.50;;;11.65;100.00
71974;BME280;59840;52.122;5.404;2023-05-28T04:51:40;102296.25;;;11.66;100.00
71974;BME280;59840;52.122;5.404;2023-05-28T04:54:07;102288.91;;;11.68;100.00
71974;BME280;59840;52.122;5.404;2023-05-28T04:56:35;102284.44;;;11.68;99.44
71974;BME280;59840;52.122;5.404;2023-05-28T04:59:02;102287.25;;;11.73;99.62
71974;BME280;59840;52.122;5.404;2023-05-28T05:01:31;102294.38;;;11.73;99.70
71974;BME280;59840;52.122;5.404;2023-05-28T05:04:02;102295.94;;;11.81;99.81
71974;BME280;59840;52.122;5.404;2023-05-28T05:06:29;102303.34;;;11.97;99.93
71974;BME280;59840;52.122;5.404;2023-05-28T05:08:56;102306.47;;;12.12;98.96
71974;BME280;59840;52.122;5.404;2023-05-28T05:11:23;102308.16;;;12.25;98.24
71974;BME280;59840;52.122;5.404;2023-05-28T05:13:50;102307.22;;;12.37;98.41
71974;BME280;59840;52.122;5.404;2023-05-28T05:16:17;102307.84;;;12.51;96.97
71974;BME280;59840;52.122;5.404;2023-05-28T05:18:43;102307.13;;;12.62;97.06
71974;BME280;59840;52.122;5.404;2023-05-28T05:21:10;102301.56;;;12.82;96.02
71974;BME280;59840;52.122;5.404;2023-05-28T05:23:39;102304.00;;;12.84;95.70
71974;BME280;59840;52.122;5.404;2023-05-28T05:26:09;102304.00;;;12.84;95.69
71974;BME280;59840;52.122;5.404;2023-05-28T05:28:45;102298.47;;;12.85;96.03
71974;BME280;59840;52.122;5.404;2023-05-28T05:31:11;102304.38;;;12.87;95.23
71974;BME280;59840;52.122;5.404;2023-05-28T05:33:39;102300.91;;;12.87;95.13
71974;BME280;59840;52.122;5.404;2023-05-28T05:36:10;102303.13;;;12.90;94.55
71974;BME280;59840;52.122;5.404;2023-05-28T05:38:39;102297.97;;;12.95;94.55
71974;BME280;59840;52.122;5.404;2023-05-28T05:41:06;102296.03;;;13.02;94.16
71974;BME280;59840;52.122;5.404;2023-05-28T05:43:32;102298.81;;;13.07;93.40
71974;BME280;59840;52.122;5.404;2023-05-28T05:45:59;102302.50;;;13.06;93.10
71974;BME280;59840;52.122;5.404;2023-05-28T05:48:26;102303.66;;;13.10;93.31
71974;BME280;59840;52.122;5.404;2023-05-28T05:50:54;102304.97;;;13.19;93.01
71974;BME280;59840;52.122;5.404;2023-05-28T05:53:22;102305.47;;;13.28;92.37
71974;BME280;59840;52.122;5.404;2023-05-28T05:55:49;102302.38;;;13.31;92.00
71974;BME280;59840;52.122;5.404;2023-05-28T05:58:16;102305.84;;;13.31;92.07
71974;BME280;59840;52.122;5.404;2023-05-28T06:00:43;102305.63;;;13.33;91.18
71974;BME280;59840;52.122;5.404;2023-05-28T06:03:10;102305.63;;;13.33;90.99
71974;BME280;59840;52.122;5.404;2023-05-28T06:05:37;102298.69;;;13.32;90.69
71974;BME280;59840;52.122;5.404;2023-05-28T06:08:03;102300.09;;;13.34;91.12
71974;BME280;59840;52.122;5.404;2023-05-28T06:10:30;102294.09;;;13.39;90.07
71974;BME280;59840;52.122;5.404;2023-05-28T06:12:57;102301.25;;;13.38;90.39
71974;BME280;59840;52.122;5.404;2023-05-28T06:15:28;102308.06;;;13.46;89.97
71974;BME280;59840;52.122;5.404;2023-05-28T06:17:55;102313.72;;;13.50;90.16
71974;BME280;59840;52.122;5.404;2023-05-28T06:20:22;102312.69;;;13.62;90.07
71974;BME280;59840;52.122;5.404;2023-05-28T06:22:50;102309.72;;;13.70;89.75
71974;BME280;59840;52.122;5.404;2023-05-28T06:25:16;102311.81;;;13.80;89.39
71974;BME280;59840;52.122;5.404;2023-05-28T06:27:43;102315.94;;;13.88;89.32
71974;BME280;59840;52.122;5.404;2023-05-28T06:30:10;102304.41;;;13.94;89.99
71974;BME280;59840;52.122;5.404;2023-05-28T06:32:36;102300.84;;;14.00;88.50
71974;BME280;59840;52.122;5.404;2023-05-28T06:35:03;102303.03;;;14.03;89.22
71974;BME280;59840;52.122;5.404;2023-05-28T06:37:30;102305.25;;;14.18;89.99
71974;BME280;59840;52.122;5.404;2023-05-28T06:39:57;102303.72;;;14.33;88.61
71974;BME280;59840;52.122;5.404;2023-05-28T06:42:23;102304.16;;;14.30;87.47
71974;BME280;59840;52.122;5.404;2023-05-28T06:44:50;102294.69;;;14.34;87.31
71974;BME280;59840;52.122;5.404;2023-05-28T06:47:17;102302.56;;;14.41;87.42
71974;BME280;59840;52.122;5.404;2023-05-28T06:49:43;102312.63;;;14.51;85.84
71974;BME280;59840;52.122;5.404;2023-05-28T06:52:10;102309.63;;;14.47;85.58
71974;BME280;59840;52.122;5.404;2023-05-28T06:54:37;102307.19;;;14.46;85.29
71974;BME280;59840;52.122;5.404;2023-05-28T06:57:03;102301.28;;;14.55;85.04
71974;BME280;59840;52.122;5.404;2023-05-28T06:59:30;102302.28;;;14.66;86.42
71974;BME280;59840;52.122;5.404;2023-05-28T07:01:57;102306.09;;;14.70;85.02
71974;BME280;59840;52.122;5.404;2023-05-28T07:04:23;102304.56;;;14.74;85.32
71974;BME280;59840;52.122;5.404;2023-05-28T07:06:50;102310.22;;;14.78;84.72
71974;BME280;59840;52.122;5.404;2023-05-28T07:09:17;102307.09;;;14.81;84.73
71974;BME280;59840;52.122;5.404;2023-05-28T07:11:44;102303.09;;;14.95;84.47
71974;BME280;59840;52.122;5.404;2023-05-28T07:14:11;102315.25;;;14.91;83.27
71974;BME280;59840;52.122;5.404;2023-05-28T07:16:37;102318.16;;;14.89;83.20
71974;BME280;59840;52.122;5.404;2023-05-28T07:19:04;102320.91;;;14.94;83.26
71974;BME280;59840;52.122;5.404;2023-05-28T07:21:31;102331.59;;;15.11;84.10
71974;BME280;59840;52.122;5.404;2023-05-28T07:23:58;102318.97;;;15.18;82.22
71974;BME280;59840;52.122;5.404;2023-05-28T07:26:25;102324.38;;;15.23;82.43
71974;BME280;59840;52.122;5.404;2023-05-28T07:28:52;102327.56;;;15.25;81.76
71974;BME280;59840;52.122;5.404;2023-05-28T07:31:20;102326.88;;;15.30;80.85
71974;BME280;59840;52.122;5.404;2023-05-28T07:33:47;102334.22;;;15.39;82.54
71974;BME280;59840;52.122;5.404;2023-05-28T07:36:13;102324.81;;;15.49;81.36
71974;BME280;59840;52.122;5.404;2023-05-28T07:38:42;102329.75;;;15.73;82.61
71974;BME280;59840;52.122;5.404;2023-05-28T07:41:08;102335.25;;;15.84;81.13
71974;BME280;59840;52.122;5.404;2023-05-28T07:43:35;102333.63;;;15.83;81.84
71974;BME280;59840;52.122;5.404;2023-05-28T07:46:02;102332.34;;;15.85;81.23
71974;BME280;59840;52.122;5.404;2023-05-28T07:48:28;102327.16;;;15.95;80.61
71974;BME280;59840;52.122;5.404;2023-05-28T07:50:57;102325.31;;;15.96;81.88
71974;BME280;59840;52.122;5.404;2023-05-28T07:53:24;102330.53;;;16.07;82.43
71974;BME280;59840;52.122;5.404;2023-05-28T07:55:51;102327.06;;;16.24;80.17
71974;BME280;59840;52.122;5.404;2023-05-28T07:58:20;102332.00;;;16.37;79.50
71974;BME280;59840;52.122;5.404;2023-05-28T08:00:47;102333.22;;;16.46;78.94
71974;BME280;59840;52.122;5.404;2023-05-28T08:03:13;102340.78;;;16.54;78.47
71974;BME280;59840;52.122;5.404;2023-05-28T08:05:40;102335.28;;;16.61;78.34
71974;BME280;59840;52.122;5.404;2023-05-28T08:08:07;102331.28;;;16.63;77.88
71974;BME280;59840;52.122;5.404;2023-05-28T08:10:34;102329.44;;;16.64;77.83
71974;BME280;59840;52.122;5.404;2023-05-28T08:13:01;102334.72;;;16.81;78.14
71974;BME280;59840;52.122;5.404;2023-05-28T08:15:29;102339.00;;;16.82;76.01
71974;BME280;59840;52.122;5.404;2023-05-28T08:17:55;102331.00;;;16.82;76.65
71974;BME280;59840;52.122;5.404;2023-05-28T08:20:22;102333.53;;;16.93;75.66
71974;BME280;59840;52.122;5.404;2023-05-28T08:22:49;102333.19;;;17.12;73.13
71974;BME280;59840;52.122;5.404;2023-05-28T08:25:18;102326.59;;;17.19;74.39
71974;BME280;59840;52.122;5.404;2023-05-28T08:27:47;102331.53;;;17.32;72.51
71974;BME280;59840;52.122;5.404;2023-05-28T08:30:15;102329.59;;;17.55;72.46
71974;BME280;59840;52.122;5.404;2023-05-28T08:32:42;102324.38;;;17.65;70.17
71974;BME280;59840;52.122;5.404;2023-05-28T08:35:09;102324.94;;;17.72;70.95
71974;BME280;59840;52.122;5.404;2023-05-28T08:37:35;102327.16;;;17.80;70.17
71974;BME280;59840;52.122;5.404;2023-05-28T08:40:02;102310.63;;;17.83;71.83
71974;BME280;59840;52.122;5.404;2023-05-28T08:42:34;102313.25;;;17.78;67.81
71974;BME280;59840;52.122;5.404;2023-05-28T08:45:03;102310.50;;;17.68;69.39
71974;BME280;59840;52.122;5.404;2023-05-28T08:47:33;102323.31;;;17.66;69.28
71974;BME280;59840;52.122;5.404;2023-05-28T08:50:03;102319.66;;;17.77;70.03
71974;BME280;59840;52.122;5.404;2023-05-28T08:52:32;102325.25;;;17.75;69.58
71974;BME280;59840;52.122;5.404;2023-05-28T08:54:59;102318.63;;;17.83;68.86
71974;BME280;59840;52.122;5.404;2023-05-28T08:57:30;102319.53;;;17.99;69.26
71974;BME280;59840;52.122;5.404;2023-05-28T08:59:58;102321.66;;;18.02;67.96
71974;BME280;59840;52.122;5.404;2023-05-28T09:02:26;102321.91;;;17.95;67.88
71974;BME280;59840;52.122;5.404;2023-05-28T09:04:56;102316.72;;;18.21;68.69
71974;BME280;59840;52.122;5.404;2023-05-28T09:07:24;102318.69;;;18.35;65.95
71974;BME280;59840;52.122;5.404;2023-05-28T09:09:52;102311.47;;;18.41;69.01
71974;BME280;59840;52.122;5.404;2023-05-28T09:12:22;102316.03;;;18.46;66.43
71974;BME280;59840;52.122;5.404;2023-05-28T09:14:50;102316.72;;;18.21;66.35
71974;BME280;59840;52.122;5.404;2023-05-28T09:17:37;102321.22;;;18.15;67.10
71974;BME280;59840;52.122;5.404;2023-05-28T09:20:14;102312.88;;;18.06;66.70
71974;BME280;59840;52.122;5.404;2023-05-28T09:22:40;102315.75;;;17.90;66.43
71974;BME280;59840;52.122;5.404;2023-05-28T09:25:08;102316.75;;;17.84;67.93
71974;BME280;59840;52.122;5.404;2023-05-28T09:27:35;102312.72;;;17.81;68.19
71974;BME280;59840;52.122;5.404;2023-05-28T09:30:04;102312.00;;;17.91;69.32
71974;BME280;59840;52.122;5.404;2023-05-28T09:32:35;102316.38;;;18.07;66.78
71974;BME280;59840;52.122;5.404;2023-05-28T09:35:05;102306.00;;;18.16;65.61
71974;BME280;59840;52.122;5.404;2023-05-28T09:37:34;102310.88;;;18.24;65.66
71974;BME280;59840;52.122;5.404;2023-05-28T09:40:04;102304.50;;;18.35;64.82
71974;BME280;59840;52.122;5.404;2023-05-28T09:42:32;102311.75;;;18.45;64.23
71974;BME280;59840;52.122;5.404;2023-05-28T09:45:02;102312.06;;;18.53;64.70
71974;BME280;59840;52.122;5.404;2023-05-28T09:47:29;102305.72;;;18.64;63.69
71974;BME280;59840;52.122;5.404;2023-05-28T09:49:56;102313.50;;;18.71;63.31
71974;BME280;59840;52.122;5.404;2023-05-28T09:52:23;102299.06;;;18.77;63.94
71974;BME280;59840;52.122;5.404;2023-05-28T09:54:53;102302.31;;;18.89;62.90
71974;BME280;59840;52.122;5.404;2023-05-28T09:57:27;102289.75;;;18.90;62.58
71974;BME280;59840;52.122;5.404;2023-05-28T09:59:56;102291.38;;;19.11;60.66
71974;BME280;59840;52.122;5.404;2023-05-28T10:02:46;102291.91;;;19.18;63.28
71974;BME280;59840;52.122;5.404;2023-05-28T10:05:19;102296.75;;;19.26;60.62
71974;BME280;59840;52.122;5.404;2023-05-28T10:07:49;102295.69;;;19.37;60.22
71974;BME280;59840;52.122;5.404;2023-05-28T10:10:20;102291.69;;;19.40;60.66
71974;BME280;59840;52.122;5.404;2023-05-28T10:12:47;102292.72;;;19.44;60.60
71974;BME280;59840;52.122;5.404;2023-05-28T10:15:16;102297.84;;;19.51;60.13
71974;BME280;59840;52.122;5.404;2023-05-28T10:17:43;102295.13;;;19.46;59.50
71974;BME280;59840;52.122;5.404;2023-05-28T10:20:10;102291.41;;;19.52;59.65
71974;BME280;59840;52.122;5.404;2023-05-28T10:22:39;102293.28;;;19.61;60.53
71974;BME280;59840;52.122;5.404;2023-05-28T10:25:07;102293.56;;;19.55;60.09
71974;BME280;59840;52.122;5.404;2023-05-28T10:27:36;102297.31;;;19.54;59.91
71974;BME280;59840;52.122;5.404;2023-05-28T10:30:04;102288.47;;;19.58;58.30
71974;BME280;59840;52.122;5.404;2023-05-28T10:32:38;102288.19;;;19.65;60.20
71974;BME280;59840;52.122;5.404;2023-05-28T10:35:11;102284.72;;;19.69;58.39
71974;BME280;59840;52.122;5.404;2023-05-28T10:37:39;102288.44;;;19.79;59.55
71974;BME280;59840;52.122;5.404;2023-05-28T10:40:09;102294.03;;;19.92;58.95
71974;BME280;59840;52.122;5.404;2023-05-28T10:42:39;102293.50;;;19.95;58.49
71974;BME280;59840;52.122;5.404;2023-05-28T10:45:08;102288.88;;;20.16;58.17
71974;BME280;59840;52.122;5.404;2023-05-28T10:47:40;102291.81;;;20.15;58.45
71974;BME280;59840;52.122;5.404;2023-05-28T10:50:14;102288.56;;;20.28;56.77
71974;BME280;59840;52.122;5.404;2023-05-28T10:55:53;102297.69;;;20.32;57.37
71974;BME280;59840;52.122;5.404;2023-05-28T10:58:34;102302.19;;;20.47;56.35
71974;BME280;59840;52.122;5.404;2023-05-28T11:03:45;102296.53;;;20.53;55.48
71974;BME280;59840;52.122;5.404;2023-05-28T11:06:13;102283.34;;;20.62;56.05
71974;BME280;59840;52.122;5.404;2023-05-28T11:08:41;102296.72;;;20.72;53.91
71974;BME280;59840;52.122;5.404;2023-05-28T11:11:13;102288.75;;;20.57;55.24
71974;BME280;59840;52.122;5.404;2023-05-28T11:13:45;102286.84;;;20.57;54.75
71974;BME280;59840;52.122;5.404;2023-05-28T11:16:14;102285.75;;;20.63;55.89
71974;BME280;59840;52.122;5.404;2023-05-28T11:19:04;102293.16;;;20.82;55.63
71974;BME280;59840;52.122;5.404;2023-05-28T11:21:31;102287.84;;;20.77;53.95
71974;BME280;59840;52.122;5.404;2023-05-28T11:24:04;102287.88;;;20.71;54.32
71974;BME280;59840;52.122;5.404;2023-05-28T11:26:31;102295.84;;;20.82;53.74
71974;BME280;59840;52.122;5.404;2023-05-28T11:29:01;102293.22;;;20.77;53.70
71974;BME280;59840;52.122;5.404;2023-05-28T11:31:41;102288.41;;;20.73;52.94
71974;BME280;59840;52.122;5.404;2023-05-28T11:34:09;102288.41;;;20.73;52.84
71974;BME280;59840;52.122;5.404;2023-05-28T11:36:43;102286.78;;;20.78;54.78
71974;BME280;59840;52.122;5.404;2023-05-28T11:39:10;102291.91;;;20.69;53.60
71974;BME280;59840;52.122;5.404;2023-05-28T11:41:37;102293.31;;;20.56;53.92
71974;BME280;59840;52.122;5.404;2023-05-28T11:44:18;102303.00;;;20.47;54.21
71974;BME280;59840;52.122;5.404;2023-05-28T11:46:49;102293.59;;;20.50;54.79
71974;BME280;59840;52.122;5.404;2023-05-28T11:49:16;102303.19;;;20.61;53.03
71974;BME280;59840;52.122;5.404;2023-05-28T11:51:43;102290.06;;;20.59;53.35
71974;BME280;59840;52.122;5.404;2023-05-28T11:54:10;102293.50;;;20.70;53.69
71974;BME280;59840;52.122;5.404;2023-05-28T11:56:37;102290.72;;;20.85;53.61
71974;BME280;59840;52.122;5.404;2023-05-28T11:59:03;102289.59;;;20.96;53.04
71974;BME280;59840;52.122;5.404;2023-05-28T12:01:35;102296.22;;;21.09;54.68
71974;BME280;59840;52.122;5.404;2023-05-28T12:04:05;102296.75;;;21.11;52.13
71974;BME280;59840;52.122;5.404;2023-05-28T12:06:34;102310.53;;;20.94;51.70
71974;BME280;59840;52.122;5.404;2023-05-28T12:09:06;102301.53;;;20.75;53.32
71974;BME280;59840;52.122;5.404;2023-05-28T12:11:34;102290.56;;;20.71;53.23
71974;BME280;59840;52.122;5.404;2023-05-28T12:14:11;102287.47;;;20.88;53.24
71974;BME280;59840;52.122;5.404;2023-05-28T12:16:46;102288.22;;;20.99;53.11
71974;BME280;59840;52.122;5.404;2023-05-28T12:19:15;102288.72;;;21.06;52.32
71974;BME280;59840;52.122;5.404;2023-05-28T12:21:43;102283.38;;;21.01;52.14
71974;BME280;59840;52.122;5.404;2023-05-28T12:24:14;102286.53;;;21.13;53.24
71974;BME280;59840;52.122;5.404;2023-05-28T12:26:49;102287.53;;;21.22;52.25
71974;BME280;59840;52.122;5.404;2023-05-28T12:29:30;102288.63;;;21.16;52.77
71974;BME280;59840;52.122;5.404;2023-05-28T12:32:24;102284.44;;;21.05;50.49
71974;BME280;59840;52.122;5.404;2023-05-28T12:34:57;102275.41;;;20.91;51.78
71974;BME280;59840;52.122;5.404;2023-05-28T12:37:41;102286.19;;;20.81;52.63
71974;BME280;59840;52.122;5.404;2023-05-28T12:40:36;102291.28;;;20.82;52.43
71974;BME280;59840;52.122;5.404;2023-05-28T12:43:06;102277.13;;;20.71;52.33
71974;BME280;59840;52.122;5.404;2023-05-28T12:45:59;102279.31;;;20.64;51.98
71974;BME280;59840;52.122;5.404;2023-05-28T12:52:14;102264.59;;;20.62;52.04
71974;BME280;59840;52.122;5.404;2023-05-28T12:54:51;102268.03;;;20.67;52.09
71974;BME280;59840;52.122;5.404;2023-05-28T12:57:38;102265.81;;;20.80;52.33
71974;BME280;59840;52.122;5.404;2023-05-28T13:00:08;102257.44;;;20.86;51.79
71974;BME280;59840;52.122;5.404;2023-05-28T13:02:42;102266.28;;;20.87;51.63
71974;BME280;59840;52.122;5.404;2023-05-28T13:05:26;102258.16;;;21.02;51.82
71974;BME280;59840;52.122;5.404;2023-05-28T13:08:16;102259.75;;;21.03;49.55
71974;BME280;59840;52.122;5.404;2023-05-28T13:10:50;102259.19;;;21.06;50.01
71974;BME280;59840;52.122;5.404;2023-05-28T13:13:20;102253.91;;;20.96;49.83
71974;BME280;59840;52.122;5.404;2023-05-28T13:15:52;102264.91;;;20.94;51.02
71974;BME280;59840;52.122;5.404;2023-05-28T13:18:34;102268.94;;;20.92;50.52
71974;BME280;59840;52.122;5.404;2023-05-28T13:21:14;102255.00;;;20.90;51.71
71974;BME280;59840;52.122;5.404;2023-05-28T13:27:12;102249.38;;;20.91;51.46
71974;BME280;59840;52.122;5.404;2023-05-28T13:29:49;102255.25;;;20.93;51.08
71974;BME280;59840;52.122;5.404;2023-05-28T13:32:16;102248.59;;;20.86;50.58
71974;BME280;59840;52.122;5.404;2023-05-28T13:34:48;102251.25;;;20.91;51.22
71974;BME280;59840;52.122;5.404;2023-05-28T13:37:23;102246.16;;;20.89;49.86
71974;BME280;59840;52.122;5.404;2023-05-28T13:47:51;102247.00;;;20.85;50.46
71974;BME280;59840;52.122;5.404;2023-05-28T13:51:06;102245.91;;;20.86;50.14
71974;BME280;59840;52.122;5.404;2023-05-28T13:53:58;102244.59;;;20.83;50.75
71974;BME280;59840;52.122;5.404;2023-05-28T13:57:05;102244.81;;;20.92;49.92
71974;BME280;59840;52.122;5.404;2023-05-28T14:00:33;102235.09;;;21.01;51.01
71974;BME280;59840;52.122;5.404;2023-05-28T14:03:57;102250.09;;;21.02;49.74
71974;BME280;59840;52.122;5.404;2023-05-28T14:06:43;102236.50;;;20.88;49.03
71974;BME280;59840;52.122;5.404;2023-05-28T14:09:35;102242.78;;;21.13;48.18
71974;BME280;59840;52.122;5.404;2023-05-28T14:12:13;102235.34;;;21.38;47.53
71974;BME280;59840;52.122;5.404;2023-05-28T14:14:56;102225.75;;;21.56;48.06
71974;BME280;59840;52.122;5.404;2023-05-28T14:17:50;102248.47;;;21.69;47.04